Remerton, Georgia
Current Conditions -  °F | °C
As of 5:03 PM on Sunday 23 Nov 2014 (Local Time) from KVLD Reporting Station
Overcast Overcast  
Wind Chill: 73°   Ceiling: 1300
Heat Index: 73°   Visibility: 10mi
Dew Point: 70°   Wind: 10mph
Humidity: 90%   Direction: 200°SSW
Pressure: 29.81"   Gusts: 20mph
Location:  30.7579°N, 83.3062°W
Report Text: KVLD 232203Z AUTO 20009G17KT 10SM BKN013 OVC020 23/21 A2981 RMK AO2 LTG DSNT E AND W AND NW T02280211 $
Loading
Personal Weather Stations






























Interactive Weather Map New forecast layout! Learn more

10-Day Weather Forecast

Advertisements
Track Severe Weather on mobile